createdAt,value
2022-12-29T00:02:30.518Z,37.00
2022-12-29T00:08:42.009Z,52.45
2022-12-29T00:15:02.870Z,30.92
2022-12-29T00:21:23.870Z,52.10
2022-12-29T00:27:46.562Z,45.25
2022-12-29T00:34:09.328Z,44.85
2022-12-29T00:40:30.131Z,39.85
2022-12-29T00:46:35.630Z,42.40
2022-12-29T00:52:37.848Z,53.55
2022-12-29T01:04:43.990Z,36.80
2022-12-29T01:10:46.124Z,37.70
2022-12-29T01:16:48.635Z,52.97
2022-12-29T01:22:52.013Z,43.97
2022-12-29T01:28:55.752Z,43.83
2022-12-29T01:34:58.421Z,51.97
2022-12-29T01:41:00.904Z,45.17
2022-12-29T01:53:11.344Z,52.83
2022-12-29T01:59:19.094Z,49.20
2022-12-29T02:05:53.932Z,51.05
2022-12-29T02:11:56.411Z,52.63
2022-12-29T02:18:33.747Z,51.55
2022-12-29T02:25:23.452Z,47.88
2022-12-29T02:32:02.201Z,46.50
2022-12-29T02:38:19.636Z,45.15
2022-12-29T02:44:51.491Z,52.17
2022-12-29T02:51:01.845Z,55.38
2022-12-29T02:57:03.994Z,41.47
2022-12-29T03:03:30.186Z,38.80
2022-12-29T03:09:56.111Z,50.63
2022-12-29T03:16:13.826Z,56.83
2022-12-29T03:22:28.903Z,54.17
2022-12-29T03:28:41.555Z,50.40
2022-12-29T03:34:46.030Z,59.63
2022-12-29T03:40:57.068Z,61.95
2022-12-29T03:47:01.160Z,47.95
2022-12-29T03:53:03.534Z,47.35
2022-12-29T03:59:06.744Z,55.45
2022-12-29T04:05:15.046Z,71.47
2022-12-29T04:11:17.604Z,63.53
2022-12-29T04:17:21.172Z,53.47
2022-12-29T04:23:26.496Z,50.30
2022-12-29T04:29:28.992Z,54.83
2022-12-29T04:35:51.766Z,42.17
2022-12-29T04:41:54.049Z,47.42
2022-12-29T04:47:57.290Z,49.00
2022-12-29T04:54:26.070Z,41.30
2022-12-29T05:00:40.975Z,44.95
2022-12-29T05:06:43.618Z,58.53
2022-12-29T05:12:46.260Z,50.00
2022-12-29T05:18:49.524Z,42.13
2022-12-29T05:24:51.697Z,55.95
2022-12-29T05:30:54.109Z,49.88
2022-12-29T05:36:56.247Z,56.50
2022-12-29T05:42:59.767Z,48.22
2022-12-29T05:49:15.281Z,58.88
2022-12-29T05:55:36.394Z,38.45
2022-12-29T06:01:39.142Z,53.83
2022-12-29T06:07:41.740Z,49.83
2022-12-29T06:13:44.116Z,47.97
2022-12-29T06:19:47.665Z,48.05
2022-12-29T06:25:50.037Z,178.23
2022-12-29T06:31:59.222Z,103.53
2022-12-29T06:38:02.343Z,92.57
2022-12-29T06:44:04.570Z,74.85
2022-12-29T06:50:25.070Z,49.55
2022-12-29T06:56:27.150Z,33.78
2022-12-29T07:02:29.334Z,40.83
2022-12-29T07:08:31.684Z,36.33
2022-12-29T07:14:37.424Z,36.08
2022-12-29T07:20:44.775Z,37.85
2022-12-29T07:26:46.805Z,39.28
2022-12-29T07:32:49.498Z,42.35
2022-12-29T07:38:51.580Z,38.97
2022-12-29T07:44:53.921Z,21.27
2022-12-29T07:51:08.834Z,46.13
2022-12-29T07:57:11.190Z,35.53
2022-12-29T08:03:13.337Z,34.55
2022-12-29T08:09:21.999Z,43.80
2022-12-29T08:15:30.521Z,38.42
2022-12-29T08:21:34.548Z,37.72
2022-12-29T08:27:36.806Z,33.47
2022-12-29T08:33:38.936Z,29.25
2022-12-29T08:39:41.036Z,29.23
2022-12-29T08:45:43.085Z,27.23
2022-12-29T08:51:45.264Z,18.13
2022-12-29T08:57:47.510Z,40.15
2022-12-29T09:04:14.231Z,26.70
2022-12-29T09:10:16.737Z,26.00
2022-12-29T09:16:19.737Z,18.40
2022-12-29T09:22:21.937Z,21.95
2022-12-29T09:28:24.630Z,21.30
2022-12-29T09:34:26.862Z,26.50
2022-12-29T09:40:32.428Z,21.25
2022-12-29T09:46:40.126Z,27.77
2022-12-29T09:52:51.224Z,19.20
2022-12-29T09:59:01.436Z,21.95
2022-12-29T10:05:03.822Z,28.70
2022-12-29T10:11:15.299Z,20.48
2022-12-29T10:17:47.523Z,17.50
2022-12-29T10:23:53.251Z,20.20
2022-12-29T10:30:00.663Z,15.80
2022-12-29T10:36:16.752Z,19.58
2022-12-29T10:42:39.297Z,22.10
2022-12-29T10:48:41.482Z,14.57
2022-12-29T10:54:52.688Z,14.50
2022-12-29T11:00:55.883Z,20.98
2022-12-29T11:06:58.955Z,11.35
2022-12-29T11:13:26.889Z,14.93
2022-12-29T11:19:36.114Z,19.95
2022-12-29T11:25:43.329Z,29.55
2022-12-29T11:31:47.856Z,15.88
2022-12-29T11:37:58.681Z,15.75
2022-12-29T11:44:06.230Z,17.20
2022-12-29T11:50:09.861Z,18.27
2022-12-29T11:56:15.433Z,24.95
2022-12-29T12:02:42.915Z,14.02
2022-12-29T12:08:52.855Z,15.98
2022-12-29T12:15:01.323Z,14.85
2022-12-29T12:21:23.194Z,15.75
2022-12-29T12:27:31.427Z,20.00
2022-12-29T12:33:40.207Z,19.05
2022-12-29T12:40:08.380Z,19.77
2022-12-29T12:46:19.558Z,30.63
2022-12-29T12:52:45.907Z,19.77
2022-12-29T12:58:56.951Z,19.77
2022-12-29T13:05:43.910Z,16.52
2022-12-29T13:12:07.919Z,18.25
2022-12-29T13:18:19.255Z,20.45
2022-12-29T13:24:42.229Z,15.88
2022-12-29T13:31:03.186Z,20.30
2022-12-29T13:37:12.101Z,12.45
2022-12-29T13:43:17.446Z,14.00
2022-12-29T13:49:25.790Z,15.88
2022-12-29T13:55:41.269Z,21.00
2022-12-29T14:01:55.996Z,14.38
2022-12-29T14:08:01.203Z,13.30
2022-12-29T14:14:24.587Z,15.82
2022-12-29T14:20:27.031Z,12.70
2022-12-29T14:26:32.067Z,23.02
2022-12-29T14:32:34.271Z,21.17
2022-12-29T14:38:46.742Z,24.23
2022-12-29T14:45:06.934Z,34.10
2022-12-29T14:51:30.209Z,27.95
2022-12-29T14:57:40.567Z,23.23
2022-12-29T15:03:55.801Z,37.03
2022-12-29T15:10:14.667Z,35.67
2022-12-29T15:16:31.570Z,32.08
2022-12-29T15:22:33.955Z,36.60
2022-12-29T15:28:41.917Z,34.03
2022-12-29T15:34:45.872Z,42.03
2022-12-29T15:40:48.391Z,37.00
2022-12-29T15:46:50.689Z,36.90
2022-12-29T15:52:52.974Z,45.15
2022-12-29T15:58:55.057Z,42.58
2022-12-29T16:11:26.047Z,37.78
2022-12-29T16:17:31.902Z,50.70
2022-12-29T16:23:37.874Z,36.90
2022-12-29T16:29:40.881Z,46.95
2022-12-29T16:35:48.255Z,42.65
2022-12-29T16:41:51.766Z,47.53
2022-12-29T16:48:06.245Z,45.63
2022-12-29T16:54:21.561Z,43.42
2022-12-29T17:00:26.925Z,47.83
2022-12-29T17:06:29.072Z,54.25
2022-12-29T17:12:31.677Z,52.58
2022-12-29T17:24:37.027Z,51.00
2022-12-29T17:30:41.152Z,68.95
2022-12-29T17:36:43.183Z,64.50
2022-12-29T17:42:49.795Z,38.67
2022-12-29T17:48:53.977Z,53.33
2022-12-29T17:54:56.732Z,52.97
2022-12-29T18:01:01.299Z,52.53
2022-12-29T18:07:10.977Z,44.80
2022-12-29T18:13:28.111Z,47.05
2022-12-29T18:19:36.093Z,53.50
2022-12-29T18:25:51.665Z,59.75
2022-12-29T18:31:53.884Z,59.13
2022-12-29T18:37:56.016Z,50.03
2022-12-29T18:43:59.652Z,51.43
2022-12-29T18:50:01.873Z,46.20
2022-12-29T18:56:04.400Z,51.70
2022-12-29T19:02:06.525Z,47.53
2022-12-29T19:08:09.610Z,52.13
2022-12-29T19:14:16.819Z,43.38
2022-12-29T19:20:40.234Z,48.88
2022-12-29T19:26:42.554Z,53.55
2022-12-29T19:32:44.689Z,53.40
2022-12-29T19:38:46.989Z,42.88
2022-12-29T19:44:49.168Z,67.03
2022-12-29T19:50:51.409Z,86.78
2022-12-29T19:56:53.502Z,67.50
2022-12-29T20:02:55.741Z,76.35
2022-12-29T20:08:58.142Z,45.63
2022-12-29T20:15:00.528Z,52.42
2022-12-29T20:21:04.919Z,71.85
2022-12-29T20:27:09.607Z,64.65
2022-12-29T20:33:11.751Z,61.60
2022-12-29T20:39:20.200Z,46.53
2022-12-29T20:45:22.333Z,55.95
2022-12-29T20:51:28.872Z,64.72
2022-12-29T20:57:49.681Z,56.80
2022-12-29T21:03:52.991Z,60.08
2022-12-29T21:09:55.156Z,56.63
2022-12-29T21:16:05.773Z,67.15
2022-12-29T21:22:07.877Z,63.80
2022-12-29T21:28:13.686Z,72.70
2022-12-29T21:34:15.888Z,59.33
2022-12-29T21:40:17.954Z,64.13
2022-12-29T21:46:23.393Z,57.63
2022-12-29T21:52:25.487Z,48.97
2022-12-29T21:58:46.179Z,58.93
2022-12-29T22:05:07.409Z,48.53
2022-12-29T22:11:28.140Z,54.20
2022-12-29T22:17:32.781Z,59.50
2022-12-29T22:23:38.654Z,59.85
2022-12-29T22:29:41.604Z,52.67
2022-12-29T22:35:43.711Z,55.03
2022-12-29T22:41:45.692Z,51.20
2022-12-29T22:47:47.795Z,39.22
2022-12-29T22:53:50.632Z,50.20
2022-12-29T22:59:52.789Z,53.13
2022-12-29T23:06:03.132Z,60.97
2022-12-29T23:12:05.410Z,52.63
2022-12-29T23:18:07.762Z,52.13
2022-12-29T23:24:14.143Z,55.67
2022-12-29T23:30:16.311Z,44.08
2022-12-29T23:36:18.822Z,54.00
2022-12-29T23:42:21.128Z,50.33
2022-12-29T23:48:23.380Z,48.20
2022-12-29T23:54:25.903Z,44.03
